sensor_id;sensor_type;location;lat;lon;timestamp;P1;durP1;ratioP1;P2;durP2;ratioP2
5153;SDS011;2595;53.584;10.084;2022-08-01T00:00:42;11.87;;;10.90;;
5153;SDS011;2595;53.584;10.084;2022-08-01T00:03:08;11.93;;;10.73;;
5153;SDS011;2595;53.584;10.084;2022-08-01T00:05:33;12.23;;;11.33;;
5153;SDS011;2595;53.584;10.084;2022-08-01T00:07:59;12.00;;;11.20;;
5153;SDS011;2595;53.584;10.084;2022-08-01T00:10:24;12.07;;;11.20;;
5153;SDS011;2595;53.584;10.084;2022-08-01T00:12:50;10.73;;;10.03;;
5153;SDS011;2595;53.584;10.084;2022-08-01T00:15:16;10.77;;;9.93;;
5153;SDS011;2595;53.584;10.084;2022-08-01T00:17:42;10.03;;;9.43;;
5153;SDS011;2595;53.584;10.084;2022-08-01T00:20:11;11.07;;;10.27;;
5153;SDS011;2595;53.584;10.084;2022-08-01T00:22:38;10.63;;;9.83;;
5153;SDS011;2595;53.584;10.084;2022-08-01T00:25:04;10.67;;;10.07;;
5153;SDS011;2595;53.584;10.084;2022-08-01T00:27:30;11.20;;;10.47;;
5153;SDS011;2595;53.584;10.084;2022-08-01T00:29:57;9.73;;;8.93;;
5153;SDS011;2595;53.584;10.084;2022-08-01T00:32:22;10.93;;;10.27;;
5153;SDS011;2595;53.584;10.084;2022-08-01T00:34:48;11.30;;;10.30;;
5153;SDS011;2595;53.584;10.084;2022-08-01T00:37:14;10.13;;;9.43;;
5153;SDS011;2595;53.584;10.084;2022-08-01T00:39:40;10.33;;;9.73;;
5153;SDS011;2595;53.584;10.084;2022-08-01T00:42:06;10.60;;;10.00;;
5153;SDS011;2595;53.584;10.084;2022-08-01T00:44:33;9.93;;;9.20;;
5153;SDS011;2595;53.584;10.084;2022-08-01T00:46:59;10.90;;;10.20;;
5153;SDS011;2595;53.584;10.084;2022-08-01T00:49:26;11.73;;;10.83;;
5153;SDS011;2595;53.584;10.084;2022-08-01T00:51:52;12.33;;;11.53;;
5153;SDS011;2595;53.584;10.084;2022-08-01T00:54:18;11.60;;;10.80;;
5153;SDS011;2595;53.584;10.084;2022-08-01T00:56:44;10.20;;;9.60;;
5153;SDS011;2595;53.584;10.084;2022-08-01T00:59:11;11.30;;;10.33;;
5153;SDS011;2595;53.584;10.084;2022-08-01T01:01:37;11.27;;;10.47;;
5153;SDS011;2595;53.584;10.084;2022-08-01T01:04:03;12.53;;;11.43;;
5153;SDS011;2595;53.584;10.084;2022-08-01T01:12:10;9.67;;;9.07;;
5153;SDS011;2595;53.584;10.084;2022-08-01T01:14:55;8.33;;;7.77;;
5153;SDS011;2595;53.584;10.084;2022-08-01T01:17:45;9.50;;;8.80;;
5153;SDS011;2595;53.584;10.084;2022-08-01T01:20:12;8.40;;;7.80;;
5153;SDS011;2595;53.584;10.084;2022-08-01T01:23:05;10.20;;;9.40;;
5153;SDS011;2595;53.584;10.084;2022-08-01T01:26:01;8.37;;;7.80;;
5153;SDS011;2595;53.584;10.084;2022-08-01T01:31:22;9.13;;;8.63;;
5153;SDS011;2595;53.584;10.084;2022-08-01T01:33:50;10.27;;;9.30;;
5153;SDS011;2595;53.584;10.084;2022-08-01T01:36:17;8.37;;;7.60;;
5153;SDS011;2595;53.584;10.084;2022-08-01T01:38:46;9.40;;;8.90;;
5153;SDS011;2595;53.584;10.084;2022-08-01T01:41:14;9.93;;;9.00;;
5153;SDS011;2595;53.584;10.084;2022-08-01T01:43:42;10.07;;;9.47;;
5153;SDS011;2595;53.584;10.084;2022-08-01T01:46:10;9.97;;;9.07;;
5153;SDS011;2595;53.584;10.084;2022-08-01T01:48:38;9.57;;;8.73;;
5153;SDS011;2595;53.584;10.084;2022-08-01T01:51:05;10.20;;;9.50;;
5153;SDS011;2595;53.584;10.084;2022-08-01T01:53:32;9.50;;;7.70;;
5153;SDS011;2595;53.584;10.084;2022-08-01T01:56:00;9.10;;;8.60;;
5153;SDS011;2595;53.584;10.084;2022-08-01T01:58:27;9.63;;;8.87;;
5153;SDS011;2595;53.584;10.084;2022-08-01T02:00:54;10.33;;;9.37;;
5153;SDS011;2595;53.584;10.084;2022-08-01T02:03:22;8.90;;;8.13;;
5153;SDS011;2595;53.584;10.084;2022-08-01T02:05:51;10.57;;;9.57;;
5153;SDS011;2595;53.584;10.084;2022-08-01T02:08:18;10.33;;;9.27;;
5153;SDS011;2595;53.584;10.084;2022-08-01T02:10:45;8.80;;;8.10;;
5153;SDS011;2595;53.584;10.084;2022-08-01T02:13:31;8.47;;;7.60;;
5153;SDS011;2595;53.584;10.084;2022-08-01T02:15:59;10.47;;;8.73;;
5153;SDS011;2595;53.584;10.084;2022-08-01T02:18:25;10.37;;;9.37;;
5153;SDS011;2595;53.584;10.084;2022-08-01T02:20:52;9.57;;;8.70;;
5153;SDS011;2595;53.584;10.084;2022-08-01T02:23:19;9.43;;;7.90;;
5153;SDS011;2595;53.584;10.084;2022-08-01T02:25:48;9.23;;;8.53;;
5153;SDS011;2595;53.584;10.084;2022-08-01T02:28:17;10.07;;;9.37;;
5153;SDS011;2595;53.584;10.084;2022-08-01T02:30:52;8.23;;;7.67;;
5153;SDS011;2595;53.584;10.084;2022-08-01T02:33:21;8.57;;;8.00;;
5153;SDS011;2595;53.584;10.084;2022-08-01T02:35:53;8.07;;;7.47;;
5153;SDS011;2595;53.584;10.084;2022-08-01T02:38:23;7.67;;;7.07;;
5153;SDS011;2595;53.584;10.084;2022-08-01T02:40:52;6.73;;;6.23;;
5153;SDS011;2595;53.584;10.084;2022-08-01T02:43:23;8.97;;;8.23;;
5153;SDS011;2595;53.584;10.084;2022-08-01T02:45:51;7.47;;;6.97;;
5153;SDS011;2595;53.584;10.084;2022-08-01T02:48:19;7.50;;;6.93;;
5153;SDS011;2595;53.584;10.084;2022-08-01T02:50:48;7.87;;;7.03;;
5153;SDS011;2595;53.584;10.084;2022-08-01T02:53:16;9.07;;;8.07;;
5153;SDS011;2595;53.584;10.084;2022-08-01T02:55:45;7.80;;;7.00;;
5153;SDS011;2595;53.584;10.084;2022-08-01T02:58:12;7.57;;;6.87;;
5153;SDS011;2595;53.584;10.084;2022-08-01T03:00:41;7.40;;;6.97;;
5153;SDS011;2595;53.584;10.084;2022-08-01T03:03:09;8.10;;;7.40;;
5153;SDS011;2595;53.584;10.084;2022-08-01T03:05:37;7.57;;;7.07;;
5153;SDS011;2595;53.584;10.084;2022-08-01T03:08:07;7.40;;;6.80;;
5153;SDS011;2595;53.584;10.084;2022-08-01T03:10:34;6.23;;;5.93;;
5153;SDS011;2595;53.584;10.084;2022-08-01T03:13:01;7.57;;;7.17;;
5153;SDS011;2595;53.584;10.084;2022-08-01T03:15:31;7.17;;;6.63;;
5153;SDS011;2595;53.584;10.084;2022-08-01T03:17:58;6.73;;;6.13;;
5153;SDS011;2595;53.584;10.084;2022-08-01T03:20:26;7.57;;;7.00;;
5153;SDS011;2595;53.584;10.084;2022-08-01T03:22:53;8.77;;;8.07;;
5153;SDS011;2595;53.584;10.084;2022-08-01T03:25:21;8.37;;;7.70;;
5153;SDS011;2595;53.584;10.084;2022-08-01T03:27:50;8.33;;;7.47;;
5153;SDS011;2595;53.584;10.084;2022-08-01T03:30:19;7.27;;;6.60;;
5153;SDS011;2595;53.584;10.084;2022-08-01T03:32:47;6.40;;;6.00;;
5153;SDS011;2595;53.584;10.084;2022-08-01T03:35:12;6.17;;;5.70;;
5153;SDS011;2595;53.584;10.084;2022-08-01T03:37:40;6.03;;;5.53;;
5153;SDS011;2595;53.584;10.084;2022-08-01T03:40:13;6.10;;;5.80;;
5153;SDS011;2595;53.584;10.084;2022-08-01T03:42:47;7.93;;;7.43;;
5153;SDS011;2595;53.584;10.084;2022-08-01T03:45:25;6.83;;;6.50;;
5153;SDS011;2595;53.584;10.084;2022-08-01T03:47:58;9.23;;;7.20;;
5153;SDS011;2595;53.584;10.084;2022-08-01T03:50:26;7.10;;;6.37;;
5153;SDS011;2595;53.584;10.084;2022-08-01T03:52:53;6.00;;;5.60;;
5153;SDS011;2595;53.584;10.084;2022-08-01T03:55:22;6.57;;;6.13;;
5153;SDS011;2595;53.584;10.084;2022-08-01T03:57:49;4.50;;;4.20;;
5153;SDS011;2595;53.584;10.084;2022-08-01T04:00:16;4.90;;;4.57;;
5153;SDS011;2595;53.584;10.084;2022-08-01T04:02:44;5.43;;;5.03;;
5153;SDS011;2595;53.584;10.084;2022-08-01T04:05:14;5.57;;;5.27;;
5153;SDS011;2595;53.584;10.084;2022-08-01T04:07:44;4.43;;;4.23;;
5153;SDS011;2595;53.584;10.084;2022-08-01T04:10:11;4.97;;;4.67;;
5153;SDS011;2595;53.584;10.084;2022-08-01T04:12:37;4.77;;;4.47;;
5153;SDS011;2595;53.584;10.084;2022-08-01T04:15:03;3.73;;;3.53;;
5153;SDS011;2595;53.584;10.084;2022-08-01T04:17:30;4.57;;;4.33;;
5153;SDS011;2595;53.584;10.084;2022-08-01T04:19:55;4.70;;;4.27;;
5153;SDS011;2595;53.584;10.084;2022-08-01T04:22:21;4.77;;;4.57;;
5153;SDS011;2595;53.584;10.084;2022-08-01T04:24:47;4.67;;;4.37;;
5153;SDS011;2595;53.584;10.084;2022-08-01T04:27:21;3.97;;;3.77;;
5153;SDS011;2595;53.584;10.084;2022-08-01T04:29:49;4.57;;;4.17;;
5153;SDS011;2595;53.584;10.084;2022-08-01T04:32:18;7.63;;;4.50;;
5153;SDS011;2595;53.584;10.084;2022-08-01T04:34:46;4.30;;;4.10;;
5153;SDS011;2595;53.584;10.084;2022-08-01T04:37:12;4.53;;;4.33;;
5153;SDS011;2595;53.584;10.084;2022-08-01T04:39:41;4.50;;;4.30;;
5153;SDS011;2595;53.584;10.084;2022-08-01T04:42:07;6.33;;;4.87;;
5153;SDS011;2595;53.584;10.084;2022-08-01T04:44:35;4.60;;;4.40;;
5153;SDS011;2595;53.584;10.084;2022-08-01T04:47:02;4.80;;;4.50;;
5153;SDS011;2595;53.584;10.084;2022-08-01T04:49:33;8.30;;;4.40;;
5153;SDS011;2595;53.584;10.084;2022-08-01T04:52:00;5.53;;;5.23;;
5153;SDS011;2595;53.584;10.084;2022-08-01T04:54:33;4.23;;;4.00;;
5153;SDS011;2595;53.584;10.084;2022-08-01T04:57:02;5.20;;;4.70;;
5153;SDS011;2595;53.584;10.084;2022-08-01T04:59:29;5.70;;;5.40;;
5153;SDS011;2595;53.584;10.084;2022-08-01T05:02:16;6.17;;;4.80;;
5153;SDS011;2595;53.584;10.084;2022-08-01T05:04:43;5.43;;;5.03;;
5153;SDS011;2595;53.584;10.084;2022-08-01T05:07:10;4.00;;;3.80;;
5153;SDS011;2595;53.584;10.084;2022-08-01T05:09:37;4.60;;;4.10;;
5153;SDS011;2595;53.584;10.084;2022-08-01T05:12:04;4.23;;;3.83;;
5153;SDS011;2595;53.584;10.084;2022-08-01T05:14:31;3.37;;;3.10;;
5153;SDS011;2595;53.584;10.084;2022-08-01T05:16:58;3.07;;;2.90;;
5153;SDS011;2595;53.584;10.084;2022-08-01T05:19:24;3.17;;;2.97;;
5153;SDS011;2595;53.584;10.084;2022-08-01T05:21:52;4.13;;;2.73;;
5153;SDS011;2595;53.584;10.084;2022-08-01T05:24:17;2.53;;;2.33;;
5153;SDS011;2595;53.584;10.084;2022-08-01T05:26:43;2.10;;;2.00;;
5153;SDS011;2595;53.584;10.084;2022-08-01T05:29:08;1.60;;;1.47;;
5153;SDS011;2595;53.584;10.084;2022-08-01T05:31:34;1.60;;;1.50;;
5153;SDS011;2595;53.584;10.084;2022-08-01T05:34:01;2.57;;;1.53;;
5153;SDS011;2595;53.584;10.084;2022-08-01T05:36:27;2.17;;;1.60;;
5153;SDS011;2595;53.584;10.084;2022-08-01T05:38:53;2.00;;;1.90;;
5153;SDS011;2595;53.584;10.084;2022-08-01T05:41:18;1.57;;;1.47;;
5153;SDS011;2595;53.584;10.084;2022-08-01T05:43:44;2.43;;;1.90;;
5153;SDS011;2595;53.584;10.084;2022-08-01T05:46:09;1.73;;;1.63;;
5153;SDS011;2595;53.584;10.084;2022-08-01T05:48:35;2.90;;;2.03;;
5153;SDS011;2595;53.584;10.084;2022-08-01T05:51:00;3.93;;;3.23;;
5153;SDS011;2595;53.584;10.084;2022-08-01T05:53:27;2.30;;;2.20;;
5153;SDS011;2595;53.584;10.084;2022-08-01T05:55:52;2.80;;;2.40;;
5153;SDS011;2595;53.584;10.084;2022-08-01T05:58:18;2.83;;;2.53;;
5153;SDS011;2595;53.584;10.084;2022-08-01T06:00:43;3.90;;;2.13;;
5153;SDS011;2595;53.584;10.084;2022-08-01T06:03:09;2.50;;;2.10;;
5153;SDS011;2595;53.584;10.084;2022-08-01T06:05:36;2.97;;;2.67;;
5153;SDS011;2595;53.584;10.084;2022-08-01T06:08:02;3.17;;;2.30;;
5153;SDS011;2595;53.584;10.084;2022-08-01T06:10:28;3.00;;;2.80;;
5153;SDS011;2595;53.584;10.084;2022-08-01T06:12:53;4.63;;;2.43;;
5153;SDS011;2595;53.584;10.084;2022-08-01T06:15:19;3.37;;;2.23;;
5153;SDS011;2595;53.584;10.084;2022-08-01T06:17:45;2.40;;;2.10;;
5153;SDS011;2595;53.584;10.084;2022-08-01T06:20:10;4.27;;;2.10;;
5153;SDS011;2595;53.584;10.084;2022-08-01T06:22:36;5.30;;;2.43;;
5153;SDS011;2595;53.584;10.084;2022-08-01T06:25:02;3.00;;;2.67;;
5153;SDS011;2595;53.584;10.084;2022-08-01T06:27:28;4.20;;;2.17;;
5153;SDS011;2595;53.584;10.084;2022-08-01T06:29:53;2.73;;;2.10;;
5153;SDS011;2595;53.584;10.084;2022-08-01T06:32:20;3.80;;;2.70;;
5153;SDS011;2595;53.584;10.084;2022-08-01T06:34:47;2.60;;;2.40;;
5153;SDS011;2595;53.584;10.084;2022-08-01T06:37:14;7.00;;;2.70;;
5153;SDS011;2595;53.584;10.084;2022-08-01T06:39:39;2.90;;;2.50;;
5153;SDS011;2595;53.584;10.084;2022-08-01T06:42:05;3.00;;;2.80;;
5153;SDS011;2595;53.584;10.084;2022-08-01T06:44:31;5.67;;;2.50;;
5153;SDS011;2595;53.584;10.084;2022-08-01T06:46:56;2.90;;;2.70;;
5153;SDS011;2595;53.584;10.084;2022-08-01T06:49:23;3.80;;;3.33;;
5153;SDS011;2595;53.584;10.084;2022-08-01T06:51:49;4.73;;;4.20;;
5153;SDS011;2595;53.584;10.084;2022-08-01T06:54:15;7.97;;;4.27;;
5153;SDS011;2595;53.584;10.084;2022-08-01T06:56:41;5.30;;;4.00;;
5153;SDS011;2595;53.584;10.084;2022-08-01T06:59:07;5.50;;;3.80;;
5153;SDS011;2595;53.584;10.084;2022-08-01T07:01:32;5.73;;;3.70;;
5153;SDS011;2595;53.584;10.084;2022-08-01T07:03:58;14.73;;;7.20;;
5153;SDS011;2595;53.584;10.084;2022-08-01T07:06:24;6.20;;;4.40;;
5153;SDS011;2595;53.584;10.084;2022-08-01T07:08:51;7.53;;;4.90;;
5153;SDS011;2595;53.584;10.084;2022-08-01T07:11:16;8.00;;;5.23;;
5153;SDS011;2595;53.584;10.084;2022-08-01T07:13:43;7.23;;;5.13;;
5153;SDS011;2595;53.584;10.084;2022-08-01T07:16:10;9.73;;;5.93;;
5153;SDS011;2595;53.584;10.084;2022-08-01T07:18:37;11.60;;;6.47;;
5153;SDS011;2595;53.584;10.084;2022-08-01T07:21:02;9.53;;;7.87;;
5153;SDS011;2595;53.584;10.084;2022-08-01T07:23:28;8.27;;;6.93;;
5153;SDS011;2595;53.584;10.084;2022-08-01T07:25:53;5.77;;;5.10;;
5153;SDS011;2595;53.584;10.084;2022-08-01T07:28:19;10.67;;;6.23;;
5153;SDS011;2595;53.584;10.084;2022-08-01T07:30:45;6.60;;;6.07;;
5153;SDS011;2595;53.584;10.084;2022-08-01T07:33:11;6.87;;;5.03;;
5153;SDS011;2595;53.584;10.084;2022-08-01T07:35:37;6.73;;;5.47;;
5153;SDS011;2595;53.584;10.084;2022-08-01T07:38:04;5.17;;;4.67;;
5153;SDS011;2595;53.584;10.084;2022-08-01T07:40:30;9.60;;;4.70;;
5153;SDS011;2595;53.584;10.084;2022-08-01T07:42:56;5.33;;;4.83;;
5153;SDS011;2595;53.584;10.084;2022-08-01T07:45:22;8.70;;;4.90;;
5153;SDS011;2595;53.584;10.084;2022-08-01T07:47:47;8.10;;;4.77;;
5153;SDS011;2595;53.584;10.084;2022-08-01T07:50:14;8.30;;;5.17;;
5153;SDS011;2595;53.584;10.084;2022-08-01T07:52:41;4.53;;;4.13;;
5153;SDS011;2595;53.584;10.084;2022-08-01T07:55:08;12.13;;;6.30;;
5153;SDS011;2595;53.584;10.084;2022-08-01T07:57:34;8.27;;;6.33;;
5153;SDS011;2595;53.584;10.084;2022-08-01T08:00:00;14.23;;;6.00;;
5153;SDS011;2595;53.584;10.084;2022-08-01T08:02:26;5.30;;;4.97;;
5153;SDS011;2595;53.584;10.084;2022-08-01T08:04:52;14.67;;;6.20;;
5153;SDS011;2595;53.584;10.084;2022-08-01T08:07:17;6.40;;;5.83;;
5153;SDS011;2595;53.584;10.084;2022-08-01T08:09:43;11.43;;;5.97;;
5153;SDS011;2595;53.584;10.084;2022-08-01T08:12:09;5.47;;;4.97;;
5153;SDS011;2595;53.584;10.084;2022-08-01T08:14:35;5.07;;;4.60;;
5153;SDS011;2595;53.584;10.084;2022-08-01T08:17:01;7.93;;;3.87;;
5153;SDS011;2595;53.584;10.084;2022-08-01T08:19:26;4.43;;;3.40;;
5153;SDS011;2595;53.584;10.084;2022-08-01T08:21:52;9.63;;;3.20;;
5153;SDS011;2595;53.584;10.084;2022-08-01T08:24:17;6.60;;;4.10;;
5153;SDS011;2595;53.584;10.084;2022-08-01T08:26:46;5.57;;;3.73;;
5153;SDS011;2595;53.584;10.084;2022-08-01T08:29:13;9.27;;;3.43;;
5153;SDS011;2595;53.584;10.084;2022-08-01T08:31:39;5.93;;;3.60;;
5153;SDS011;2595;53.584;10.084;2022-08-01T08:34:04;6.70;;;2.97;;
5153;SDS011;2595;53.584;10.084;2022-08-01T08:36:30;5.90;;;2.50;;
5153;SDS011;2595;53.584;10.084;2022-08-01T08:38:56;5.00;;;3.13;;
5153;SDS011;2595;53.584;10.084;2022-08-01T08:41:22;3.60;;;2.73;;
5153;SDS011;2595;53.584;10.084;2022-08-01T08:43:47;5.70;;;3.40;;
5153;SDS011;2595;53.584;10.084;2022-08-01T08:46:13;5.40;;;2.90;;
5153;SDS011;2595;53.584;10.084;2022-08-01T08:48:41;3.37;;;2.83;;
5153;SDS011;2595;53.584;10.084;2022-08-01T08:51:08;4.60;;;3.33;;
5153;SDS011;2595;53.584;10.084;2022-08-01T08:53:36;3.70;;;2.57;;
5153;SDS011;2595;53.584;10.084;2022-08-01T08:56:08;2.47;;;2.27;;
5153;SDS011;2595;53.584;10.084;2022-08-01T08:58:36;2.60;;;2.40;;
5153;SDS011;2595;53.584;10.084;2022-08-01T09:01:06;2.80;;;2.47;;
5153;SDS011;2595;53.584;10.084;2022-08-01T09:03:33;3.90;;;3.30;;
5153;SDS011;2595;53.584;10.084;2022-08-01T09:06:00;2.60;;;2.40;;
5153;SDS011;2595;53.584;10.084;2022-08-01T09:08:26;5.13;;;3.03;;
5153;SDS011;2595;53.584;10.084;2022-08-01T09:10:51;5.57;;;2.77;;
5153;SDS011;2595;53.584;10.084;2022-08-01T09:13:17;3.03;;;2.73;;
5153;SDS011;2595;53.584;10.084;2022-08-01T09:15:49;4.00;;;3.73;;
5153;SDS011;2595;53.584;10.084;2022-08-01T09:23:34;5.20;;;3.00;;
5153;SDS011;2595;53.584;10.084;2022-08-01T09:26:07;4.53;;;3.00;;
5153;SDS011;2595;53.584;10.084;2022-08-01T09:28:37;2.83;;;2.60;;
5153;SDS011;2595;53.584;10.084;2022-08-01T09:31:10;2.97;;;2.63;;
5153;SDS011;2595;53.584;10.084;2022-08-01T09:33:52;9.17;;;3.17;;
5153;SDS011;2595;53.584;10.084;2022-08-01T09:36:27;5.23;;;2.80;;
5153;SDS011;2595;53.584;10.084;2022-08-01T09:39:16;3.40;;;2.60;;
5153;SDS011;2595;53.584;10.084;2022-08-01T09:41:42;3.07;;;2.37;;
5153;SDS011;2595;53.584;10.084;2022-08-01T09:44:08;7.07;;;2.33;;
5153;SDS011;2595;53.584;10.084;2022-08-01T09:46:34;4.40;;;2.53;;
5153;SDS011;2595;53.584;10.084;2022-08-01T09:49:02;4.10;;;2.47;;
5153;SDS011;2595;53.584;10.084;2022-08-01T09:51:30;6.63;;;3.63;;
5153;SDS011;2595;53.584;10.084;2022-08-01T09:54:01;4.90;;;2.53;;
5153;SDS011;2595;53.584;10.084;2022-08-01T09:56:38;4.40;;;2.60;;
5153;SDS011;2595;53.584;10.084;2022-08-01T09:59:07;5.90;;;2.73;;
5153;SDS011;2595;53.584;10.084;2022-08-01T10:01:49;6.07;;;2.50;;
5153;SDS011;2595;53.584;10.084;2022-08-01T10:04:16;10.80;;;2.50;;
5153;SDS011;2595;53.584;10.084;2022-08-01T10:06:45;5.10;;;2.40;;
5153;SDS011;2595;53.584;10.084;2022-08-01T10:09:14;3.30;;;2.93;;
5153;SDS011;2595;53.584;10.084;2022-08-01T10:11:41;5.73;;;2.43;;
5153;SDS011;2595;53.584;10.084;2022-08-01T10:14:07;7.07;;;2.10;;
5153;SDS011;2595;53.584;10.084;2022-08-01T10:16:36;5.13;;;2.70;;
5153;SDS011;2595;53.584;10.084;2022-08-01T10:19:05;8.20;;;3.13;;
5153;SDS011;2595;53.584;10.084;2022-08-01T10:21:32;8.07;;;3.10;;
5153;SDS011;2595;53.584;10.084;2022-08-01T10:23:59;7.57;;;3.73;;
5153;SDS011;2595;53.584;10.084;2022-08-01T10:26:27;7.60;;;3.70;;
5153;SDS011;2595;53.584;10.084;2022-08-01T10:28:56;3.33;;;2.50;;
5153;SDS011;2595;53.584;10.084;2022-08-01T10:31:22;6.33;;;2.43;;
5153;SDS011;2595;53.584;10.084;2022-08-01T10:33:49;5.30;;;2.90;;
5153;SDS011;2595;53.584;10.084;2022-08-01T10:36:19;6.93;;;2.60;;
5153;SDS011;2595;53.584;10.084;2022-08-01T10:38:46;4.33;;;3.43;;
5153;SDS011;2595;53.584;10.084;2022-08-01T10:41:12;4.00;;;2.80;;
5153;SDS011;2595;53.584;10.084;2022-08-01T10:43:40;6.27;;;2.80;;
5153;SDS011;2595;53.584;10.084;2022-08-01T10:46:06;3.17;;;2.90;;
5153;SDS011;2595;53.584;10.084;2022-08-01T10:51:21;5.80;;;2.70;;
5153;SDS011;2595;53.584;10.084;2022-08-01T10:53:50;3.73;;;2.30;;
5153;SDS011;2595;53.584;10.084;2022-08-01T10:56:16;5.10;;;2.67;;
5153;SDS011;2595;53.584;10.084;2022-08-01T10:58:42;4.63;;;2.03;;
5153;SDS011;2595;53.584;10.084;2022-08-01T11:01:16;2.20;;;1.73;;
5153;SDS011;2595;53.584;10.084;2022-08-01T11:03:58;3.70;;;1.93;;
5153;SDS011;2595;53.584;10.084;2022-08-01T11:09:03;2.60;;;1.83;;
5153;SDS011;2595;53.584;10.084;2022-08-01T11:11:56;3.33;;;2.17;;
5153;SDS011;2595;53.584;10.084;2022-08-01T11:14:30;6.17;;;2.30;;
5153;SDS011;2595;53.584;10.084;2022-08-01T11:16:56;3.50;;;2.37;;
5153;SDS011;2595;53.584;10.084;2022-08-01T11:20:05;5.17;;;2.33;;
5153;SDS011;2595;53.584;10.084;2022-08-01T11:23:16;5.57;;;2.40;;
5153;SDS011;2595;53.584;10.084;2022-08-01T11:25:26;6.63;;;2.43;;
5153;SDS011;2595;53.584;10.084;2022-08-01T11:30:51;8.07;;;1.77;;
5153;SDS011;2595;53.584;10.084;2022-08-01T11:33:18;5.20;;;1.80;;
5153;SDS011;2595;53.584;10.084;2022-08-01T11:38:36;3.50;;;2.07;;
5153;SDS011;2595;53.584;10.084;2022-08-01T11:46:47;6.33;;;2.80;;
5153;SDS011;2595;53.584;10.084;2022-08-01T11:49:47;11.37;;;2.00;;
5153;SDS011;2595;53.584;10.084;2022-08-01T11:52:10;4.10;;;1.90;;
5153;SDS011;2595;53.584;10.084;2022-08-01T11:59:43;6.53;;;2.10;;
5153;SDS011;2595;53.584;10.084;2022-08-01T12:02:19;6.50;;;2.30;;
5153;SDS011;2595;53.584;10.084;2022-08-01T12:04:50;5.40;;;2.03;;
5153;SDS011;2595;53.584;10.084;2022-08-01T12:07:20;3.83;;;2.10;;
5153;SDS011;2595;53.584;10.084;2022-08-01T12:09:46;2.93;;;1.43;;
5153;SDS011;2595;53.584;10.084;2022-08-01T12:12:16;4.00;;;1.83;;
5153;SDS011;2595;53.584;10.084;2022-08-01T12:14:43;5.83;;;2.80;;
5153;SDS011;2595;53.584;10.084;2022-08-01T12:17:11;2.47;;;1.90;;
5153;SDS011;2595;53.584;10.084;2022-08-01T12:19:36;3.30;;;2.20;;
5153;SDS011;2595;53.584;10.084;2022-08-01T12:22:04;5.30;;;1.80;;
5153;SDS011;2595;53.584;10.084;2022-08-01T12:24:30;1.83;;;1.63;;
5153;SDS011;2595;53.584;10.084;2022-08-01T12:26:55;3.50;;;1.80;;
5153;SDS011;2595;53.584;10.084;2022-08-01T12:29:34;3.90;;;2.30;;
5153;SDS011;2595;53.584;10.084;2022-08-01T12:32:22;2.10;;;1.10;;
5153;SDS011;2595;53.584;10.084;2022-08-01T12:34:50;1.90;;;1.20;;
5153;SDS011;2595;53.584;10.084;2022-08-01T12:37:18;2.83;;;1.90;;
5153;SDS011;2595;53.584;10.084;2022-08-01T12:39:44;1.80;;;1.10;;
5153;SDS011;2595;53.584;10.084;2022-08-01T12:42:11;2.47;;;1.20;;
5153;SDS011;2595;53.584;10.084;2022-08-01T12:44:37;3.13;;;1.40;;
5153;SDS011;2595;53.584;10.084;2022-08-01T12:47:04;4.43;;;1.60;;
5153;SDS011;2595;53.584;10.084;2022-08-01T12:49:37;4.40;;;1.73;;
5153;SDS011;2595;53.584;10.084;2022-08-01T12:52:05;5.70;;;2.70;;
5153;SDS011;2595;53.584;10.084;2022-08-01T12:54:30;3.57;;;1.93;;
5153;SDS011;2595;53.584;10.084;2022-08-01T12:57:22;3.60;;;3.03;;
5153;SDS011;2595;53.584;10.084;2022-08-01T12:59:49;3.47;;;1.83;;
5153;SDS011;2595;53.584;10.084;2022-08-01T13:02:18;5.87;;;1.67;;
5153;SDS011;2595;53.584;10.084;2022-08-01T13:04:52;3.17;;;1.87;;
5153;SDS011;2595;53.584;10.084;2022-08-01T13:07:18;3.43;;;2.10;;
5153;SDS011;2595;53.584;10.084;2022-08-01T13:09:50;2.10;;;1.43;;
5153;SDS011;2595;53.584;10.084;2022-08-01T13:12:16;2.53;;;1.57;;
5153;SDS011;2595;53.584;10.084;2022-08-01T13:14:42;4.87;;;1.93;;
5153;SDS011;2595;53.584;10.084;2022-08-01T13:17:07;3.57;;;1.70;;
5153;SDS011;2595;53.584;10.084;2022-08-01T13:19:43;3.40;;;2.00;;
5153;SDS011;2595;53.584;10.084;2022-08-01T13:22:09;4.30;;;1.80;;
5153;SDS011;2595;53.584;10.084;2022-08-01T13:24:35;4.10;;;1.43;;
5153;SDS011;2595;53.584;10.084;2022-08-01T13:27:01;3.10;;;2.00;;
5153;SDS011;2595;53.584;10.084;2022-08-01T13:34:44;2.83;;;1.30;;
5153;SDS011;2595;53.584;10.084;2022-08-01T13:37:10;2.70;;;2.13;;
5153;SDS011;2595;53.584;10.084;2022-08-01T13:39:36;4.23;;;1.63;;
5153;SDS011;2595;53.584;10.084;2022-08-01T13:42:13;2.50;;;1.30;;
5153;SDS011;2595;53.584;10.084;2022-08-01T13:44:40;5.87;;;1.43;;
5153;SDS011;2595;53.584;10.084;2022-08-01T13:47:06;3.17;;;1.63;;
5153;SDS011;2595;53.584;10.084;2022-08-01T13:49:32;3.97;;;2.03;;
5153;SDS011;2595;53.584;10.084;2022-08-01T13:51:58;2.60;;;1.60;;
5153;SDS011;2595;53.584;10.084;2022-08-01T13:54:24;3.80;;;1.20;;
5153;SDS011;2595;53.584;10.084;2022-08-01T13:56:50;6.23;;;1.80;;
5153;SDS011;2595;53.584;10.084;2022-08-01T13:59:16;2.30;;;1.20;;
5153;SDS011;2595;53.584;10.084;2022-08-01T14:01:42;3.30;;;1.57;;
5153;SDS011;2595;53.584;10.084;2022-08-01T14:04:08;2.73;;;1.93;;
5153;SDS011;2595;53.584;10.084;2022-08-01T14:06:34;1.90;;;1.20;;
5153;SDS011;2595;53.584;10.084;2022-08-01T14:09:03;2.37;;;1.90;;
5153;SDS011;2595;53.584;10.084;2022-08-01T14:11:29;2.23;;;1.40;;
5153;SDS011;2595;53.584;10.084;2022-08-01T14:13:54;3.03;;;1.53;;
5153;SDS011;2595;53.584;10.084;2022-08-01T14:16:20;2.10;;;2.00;;
5153;SDS011;2595;53.584;10.084;2022-08-01T14:18:46;2.10;;;1.13;;
5153;SDS011;2595;53.584;10.084;2022-08-01T14:21:11;2.03;;;1.37;;
5153;SDS011;2595;53.584;10.084;2022-08-01T14:23:37;2.03;;;1.53;;
5153;SDS011;2595;53.584;10.084;2022-08-01T14:26:03;3.83;;;1.77;;
5153;SDS011;2595;53.584;10.084;2022-08-01T14:28:29;2.43;;;1.30;;
5153;SDS011;2595;53.584;10.084;2022-08-01T14:30:55;4.10;;;1.67;;
5153;SDS011;2595;53.584;10.084;2022-08-01T14:33:22;3.50;;;1.30;;
5153;SDS011;2595;53.584;10.084;2022-08-01T14:35:48;7.03;;;2.37;;
5153;SDS011;2595;53.584;10.084;2022-08-01T14:38:13;2.00;;;1.80;;
5153;SDS011;2595;53.584;10.084;2022-08-01T14:40:39;3.20;;;1.63;;
5153;SDS011;2595;53.584;10.084;2022-08-01T14:43:08;4.20;;;1.80;;
5153;SDS011;2595;53.584;10.084;2022-08-01T14:45:34;3.30;;;1.60;;
5153;SDS011;2595;53.584;10.084;2022-08-01T14:48:00;3.30;;;2.00;;
5153;SDS011;2595;53.584;10.084;2022-08-01T14:50:25;1.67;;;1.43;;
5153;SDS011;2595;53.584;10.084;2022-08-01T14:52:52;2.10;;;1.47;;
5153;SDS011;2595;53.584;10.084;2022-08-01T14:55:18;4.70;;;2.07;;
5153;SDS011;2595;53.584;10.084;2022-08-01T14:57:48;7.67;;;1.90;;
5153;SDS011;2595;53.584;10.084;2022-08-01T15:00:14;4.97;;;1.60;;
5153;SDS011;2595;53.584;10.084;2022-08-01T15:02:40;5.03;;;1.70;;
5153;SDS011;2595;53.584;10.084;2022-08-01T15:05:06;8.50;;;1.93;;
5153;SDS011;2595;53.584;10.084;2022-08-01T15:07:33;2.23;;;1.57;;
5153;SDS011;2595;53.584;10.084;2022-08-01T15:09:59;6.00;;;2.70;;
5153;SDS011;2595;53.584;10.084;2022-08-01T15:12:24;3.77;;;1.57;;
5153;SDS011;2595;53.584;10.084;2022-08-01T15:14:50;2.70;;;1.77;;
5153;SDS011;2595;53.584;10.084;2022-08-01T15:19:51;3.20;;;2.03;;
5153;SDS011;2595;53.584;10.084;2022-08-01T15:22:18;3.23;;;1.70;;
5153;SDS011;2595;53.584;10.084;2022-08-01T15:24:46;5.40;;;1.97;;
5153;SDS011;2595;53.584;10.084;2022-08-01T15:27:12;3.53;;;1.63;;
5153;SDS011;2595;53.584;10.084;2022-08-01T15:29:38;3.67;;;1.60;;
5153;SDS011;2595;53.584;10.084;2022-08-01T15:32:04;2.90;;;1.70;;
5153;SDS011;2595;53.584;10.084;2022-08-01T15:34:31;2.13;;;1.90;;
5153;SDS011;2595;53.584;10.084;2022-08-01T15:36:57;3.30;;;1.87;;
5153;SDS011;2595;53.584;10.084;2022-08-01T15:39:23;8.53;;;2.17;;
5153;SDS011;2595;53.584;10.084;2022-08-01T15:41:49;2.63;;;2.33;;
5153;SDS011;2595;53.584;10.084;2022-08-01T15:44:16;4.40;;;2.40;;
5153;SDS011;2595;53.584;10.084;2022-08-01T15:46:47;4.10;;;2.37;;